createdAt,value
2018-04-08T00:00:40.285Z,17.92
2018-04-08T00:01:40.305Z,17.94
2018-04-08T00:02:40.252Z,17.92
2018-04-08T00:03:40.312Z,17.91
2018-04-08T00:04:40.309Z,17.92
2018-04-08T00:05:40.268Z,17.91
2018-04-08T00:06:40.538Z,17.91
2018-04-08T00:07:40.274Z,17.91
2018-04-08T00:08:40.284Z,17.91
2018-04-08T00:09:40.297Z,17.91
2018-04-08T00:10:40.298Z,17.9
2018-04-08T00:11:40.310Z,17.9
2018-04-08T00:12:40.243Z,17.91
2018-04-08T00:13:40.273Z,17.91
2018-04-08T00:14:40.239Z,17.89
2018-04-08T00:15:40.286Z,17.91
2018-04-08T00:16:40.290Z,17.91
2018-04-08T00:17:40.298Z,17.89
2018-04-08T00:18:40.282Z,17.9
2018-04-08T00:19:40.262Z,17.89
2018-04-08T00:20:40.279Z,17.89
2018-04-08T00:21:40.283Z,17.89
2018-04-08T00:22:40.297Z,17.87
2018-04-08T00:23:40.311Z,17.9
2018-04-08T00:24:40.268Z,17.9
2018-04-08T00:25:40.281Z,17.88
2018-04-08T00:26:40.281Z,17.85
2018-04-08T00:27:40.282Z,17.87
2018-04-08T00:28:40.273Z,17.88
2018-04-08T00:29:40.273Z,17.87
2018-04-08T00:30:40.266Z,17.88
2018-04-08T00:31:40.280Z,17.88
2018-04-08T00:32:40.333Z,17.87
2018-04-08T00:33:40.257Z,17.87
2018-04-08T00:34:40.358Z,17.88
2018-04-08T00:35:40.385Z,17.87
2018-04-08T00:36:40.239Z,17.88
2018-04-08T00:37:40.255Z,17.88
2018-04-08T00:38:40.274Z,17.89
2018-04-08T00:39:40.268Z,17.85
2018-04-08T00:40:40.267Z,17.88
2018-04-08T00:41:40.233Z,17.83
2018-04-08T00:42:40.276Z,17.87
2018-04-08T00:43:40.282Z,17.87
2018-04-08T00:44:40.291Z,17.85
2018-04-08T00:45:40.283Z,17.84
2018-04-08T00:46:40.259Z,17.88
2018-04-08T00:47:40.267Z,17.84
2018-04-08T00:48:40.281Z,17.85
2018-04-08T00:49:40.298Z,17.87
2018-04-08T00:50:40.402Z,17.85
2018-04-08T00:51:40.280Z,17.85
2018-04-08T00:52:40.267Z,17.84
2018-04-08T00:53:40.240Z,17.83
2018-04-08T00:54:40.258Z,17.83
2018-04-08T00:55:40.270Z,17.81
2018-04-08T00:56:40.286Z,17.83
2018-04-08T00:57:40.298Z,17.83
2018-04-08T00:58:40.256Z,17.82
2018-04-08T00:59:40.287Z,17.83
2018-04-08T01:00:40.293Z,17.83
2018-04-08T01:01:40.252Z,17.83
2018-04-08T01:02:40.227Z,17.83
2018-04-08T01:03:40.286Z,17.83
2018-04-08T01:04:40.251Z,17.83
2018-04-08T01:05:40.274Z,17.81
2018-04-08T01:06:40.282Z,17.82
2018-04-08T01:07:40.267Z,17.81
2018-04-08T01:08:40.271Z,17.8
2018-04-08T01:09:40.257Z,17.81
2018-04-08T01:10:40.265Z,17.8
2018-04-08T01:11:40.265Z,17.81
2018-04-08T01:12:40.278Z,17.82
2018-04-08T01:13:40.298Z,17.8
2018-04-08T01:14:40.264Z,17.8
2018-04-08T01:15:40.253Z,17.81
2018-04-08T01:16:40.320Z,17.8
2018-04-08T01:17:40.284Z,17.81
2018-04-08T01:18:40.251Z,17.81
2018-04-08T01:19:40.279Z,17.8
2018-04-08T01:20:40.276Z,17.8
2018-04-08T01:21:40.266Z,17.81
2018-04-08T01:22:40.349Z,17.8
2018-04-08T01:23:40.256Z,17.82
2018-04-08T01:24:40.261Z,17.8
2018-04-08T01:25:40.209Z,17.8
2018-04-08T01:26:40.348Z,17.79
2018-04-08T01:27:40.258Z,17.8
2018-04-08T01:28:40.280Z,17.8
2018-04-08T01:29:40.274Z,17.79
2018-04-08T01:30:40.278Z,17.79
2018-04-08T01:31:40.264Z,17.79
2018-04-08T01:32:40.249Z,17.79
2018-04-08T01:33:40.228Z,17.8
2018-04-08T01:34:40.268Z,17.8
2018-04-08T01:35:40.267Z,17.79
2018-04-08T01:36:40.262Z,17.8
2018-04-08T01:37:40.259Z,17.78
2018-04-08T01:38:40.258Z,17.77
2018-04-08T01:39:40.241Z,17.8
2018-04-08T01:40:40.245Z,17.77
2018-04-08T01:41:40.255Z,17.78
2018-04-08T01:42:40.246Z,17.8
2018-04-08T01:43:40.229Z,17.77
2018-04-08T01:44:40.252Z,17.8
2018-04-08T01:45:40.239Z,17.78
2018-04-08T01:46:40.247Z,17.78
2018-04-08T01:47:40.256Z,17.78
2018-04-08T01:48:40.231Z,17.77
2018-04-08T01:49:40.237Z,17.77
2018-04-08T01:50:40.274Z,17.75
2018-04-08T01:51:40.244Z,17.76
2018-04-08T01:52:40.271Z,17.76
2018-04-08T01:53:40.203Z,17.74
2018-04-08T01:54:40.233Z,17.76
2018-04-08T01:55:40.241Z,17.77
2018-04-08T01:56:40.251Z,17.76
2018-04-08T01:57:40.287Z,17.76
2018-04-08T01:58:40.221Z,17.75
2018-04-08T01:59:40.214Z,17.75
2018-04-08T02:00:40.218Z,17.77
2018-04-08T02:01:40.257Z,17.76
2018-04-08T02:02:40.240Z,17.75
2018-04-08T02:03:40.252Z,17.75
2018-04-08T02:04:40.243Z,17.75
2018-04-08T02:05:40.207Z,17.76
2018-04-08T02:06:40.222Z,17.76
2018-04-08T02:07:40.235Z,17.76
2018-04-08T02:08:40.248Z,17.75
2018-04-08T02:09:40.249Z,17.75
2018-04-08T02:10:40.216Z,17.74
2018-04-08T02:11:40.210Z,17.73
2018-04-08T02:12:40.257Z,17.75
2018-04-08T02:13:40.228Z,17.73
2018-04-08T02:14:40.231Z,17.73
2018-04-08T02:15:40.232Z,17.75
2018-04-08T02:16:40.221Z,17.73
2018-04-08T02:17:40.261Z,17.74
2018-04-08T02:18:40.243Z,17.76
2018-04-08T02:19:40.288Z,17.73
2018-04-08T02:20:40.263Z,17.74
2018-04-08T02:21:40.255Z,17.75
2018-04-08T02:22:40.242Z,17.74
2018-04-08T02:23:40.253Z,17.73
2018-04-08T02:24:40.301Z,17.72
2018-04-08T02:25:40.227Z,17.72
2018-04-08T02:26:40.214Z,17.7
2018-04-08T02:27:40.238Z,17.74
2018-04-08T02:28:40.233Z,17.72
2018-04-08T02:29:40.242Z,17.73
2018-04-08T02:30:40.244Z,17.73
2018-04-08T02:31:40.221Z,17.72
2018-04-08T02:32:40.237Z,17.7
2018-04-08T02:33:40.202Z,17.72
2018-04-08T02:34:40.224Z,17.72
2018-04-08T02:35:40.334Z,17.73
2018-04-08T02:36:40.326Z,17.73
2018-04-08T02:37:40.251Z,17.72
2018-04-08T02:38:40.232Z,17.69
2018-04-08T02:39:40.343Z,17.72
2018-04-08T02:40:40.244Z,17.68
2018-04-08T02:41:40.257Z,17.7
2018-04-08T02:42:40.203Z,17.73
2018-04-08T02:43:40.276Z,17.68
2018-04-08T02:44:40.215Z,17.69
2018-04-08T02:45:40.213Z,17.72
2018-04-08T02:46:40.237Z,17.73
2018-04-08T02:47:40.260Z,17.7
2018-04-08T02:48:40.255Z,17.7
2018-04-08T02:49:40.242Z,17.7
2018-04-08T02:50:40.249Z,17.68
2018-04-08T02:51:40.219Z,17.69
2018-04-08T02:52:40.263Z,17.69
2018-04-08T02:53:40.240Z,17.69
2018-04-08T02:54:40.248Z,17.7
2018-04-08T02:55:40.266Z,17.68
2018-04-08T02:56:40.243Z,17.68
2018-04-08T02:57:40.266Z,17.69
2018-04-08T02:58:40.215Z,17.69
2018-04-08T02:59:40.221Z,17.68
2018-04-08T03:00:40.277Z,17.7
2018-04-08T03:01:40.249Z,17.68
2018-04-08T03:02:40.230Z,17.68
2018-04-08T03:03:40.214Z,17.68
2018-04-08T03:04:40.242Z,17.68
2018-04-08T03:05:40.262Z,17.68
2018-04-08T03:06:40.239Z,17.67
2018-04-08T03:07:40.242Z,17.69
2018-04-08T03:08:40.234Z,17.7
2018-04-08T03:09:40.251Z,17.72
2018-04-08T03:10:40.232Z,17.68
2018-04-08T03:11:40.284Z,17.68
2018-04-08T03:12:40.212Z,17.67
2018-04-08T03:13:40.053Z,17.67
2018-04-08T03:14:40.188Z,17.67
2018-04-08T03:15:40.248Z,17.68
2018-04-08T03:16:40.506Z,17.67
2018-04-08T03:17:40.225Z,17.68
2018-04-08T03:18:40.217Z,17.67
2018-04-08T03:19:40.225Z,17.67
2018-04-08T03:20:40.232Z,17.67
2018-04-08T03:21:40.242Z,17.68
2018-04-08T03:22:40.251Z,17.66
2018-04-08T03:23:40.213Z,17.66
2018-04-08T03:24:40.213Z,17.67
2018-04-08T03:25:40.227Z,17.66
2018-04-08T03:26:40.229Z,17.66
2018-04-08T03:27:40.223Z,17.66
2018-04-08T03:28:40.217Z,17.68
2018-04-08T03:29:40.224Z,17.65
2018-04-08T03:30:40.258Z,17.65
2018-04-08T03:31:40.217Z,17.67
2018-04-08T03:32:40.213Z,17.66
2018-04-08T03:33:40.207Z,17.66
2018-04-08T03:34:40.254Z,17.64
2018-04-08T03:35:40.214Z,17.66
2018-04-08T03:36:40.222Z,17.65
2018-04-08T03:37:40.255Z,17.64
2018-04-08T03:38:40.464Z,17.64
2018-04-08T03:39:40.177Z,17.64
2018-04-08T03:40:40.243Z,17.64
2018-04-08T03:41:40.218Z,17.64
2018-04-08T03:42:40.232Z,17.66
2018-04-08T03:43:40.202Z,17.65
2018-04-08T03:44:40.243Z,17.66
2018-04-08T03:45:40.184Z,17.65
2018-04-08T03:46:40.230Z,17.63
2018-04-08T03:47:40.218Z,17.63
2018-04-08T03:48:40.218Z,17.63
2018-04-08T03:49:40.226Z,17.64
2018-04-08T03:50:40.222Z,17.63
2018-04-08T03:51:40.187Z,17.65
2018-04-08T03:52:40.201Z,17.64
2018-04-08T03:53:40.202Z,17.63
2018-04-08T03:54:40.215Z,17.64
2018-04-08T03:55:40.202Z,17.65
2018-04-08T03:56:40.210Z,17.63
2018-04-08T03:57:40.212Z,17.65
2018-04-08T03:58:40.197Z,17.65
2018-04-08T03:59:40.180Z,17.65
2018-04-08T04:00:40.215Z,17.66
2018-04-08T04:01:40.250Z,17.68
2018-04-08T04:02:40.249Z,17.66
2018-04-08T04:03:40.195Z,17.68
2018-04-08T04:04:40.205Z,17.66
2018-04-08T04:05:40.192Z,17.66
2018-04-08T04:06:40.202Z,17.68
2018-04-08T04:07:40.200Z,17.68
2018-04-08T04:08:40.204Z,17.7
2018-04-08T04:09:40.183Z,17.72
2018-04-08T04:10:40.204Z,17.73
2018-04-08T04:11:40.221Z,17.73
2018-04-08T04:12:40.227Z,17.76
2018-04-08T04:13:40.252Z,17.76
2018-04-08T04:14:40.207Z,17.76
2018-04-08T04:15:40.211Z,17.78
2018-04-08T04:16:40.198Z,17.8
2018-04-08T04:17:40.179Z,17.78
2018-04-08T04:18:40.211Z,17.82
2018-04-08T04:19:40.194Z,17.81
2018-04-08T04:20:41.636Z,17.82
2018-04-08T04:21:40.174Z,17.85
2018-04-08T04:22:40.204Z,17.85
2018-04-08T04:23:40.220Z,17.88
2018-04-08T04:24:40.186Z,17.89
2018-04-08T04:25:40.182Z,17.9
2018-04-08T04:26:40.233Z,17.91
2018-04-08T04:27:40.208Z,17.92
2018-04-08T04:28:40.173Z,17.93
2018-04-08T04:29:40.197Z,17.94
2018-04-08T04:30:40.209Z,17.96
2018-04-08T04:31:40.174Z,17.96
2018-04-08T04:32:40.199Z,17.96
2018-04-08T04:33:40.190Z,17.99
2018-04-08T04:34:40.206Z,18.02
2018-04-08T04:35:40.202Z,17.99
2018-04-08T04:36:40.297Z,17.99
2018-04-08T04:37:40.453Z,18.03
2018-04-08T04:38:40.203Z,18.03
2018-04-08T04:39:40.201Z,18.04
2018-04-08T04:40:40.184Z,18.05
2018-04-08T04:41:40.219Z,18.04
2018-04-08T04:42:40.241Z,18.06
2018-04-08T04:43:40.192Z,18.08
2018-04-08T04:44:40.220Z,18.08
2018-04-08T04:45:40.308Z,18.09
2018-04-08T04:46:40.206Z,18.11
2018-04-08T04:47:40.215Z,18.09
2018-04-08T04:48:40.186Z,18.11
2018-04-08T04:49:40.194Z,18.11
2018-04-08T04:50:40.168Z,18.11
2018-04-08T04:51:40.245Z,18.12
2018-04-08T04:52:40.196Z,18.14
2018-04-08T04:53:40.167Z,18.13
2018-04-08T04:54:40.190Z,18.15
2018-04-08T04:55:40.170Z,18.14
2018-04-08T04:56:40.193Z,18.15
2018-04-08T04:57:40.166Z,18.17
2018-04-08T04:58:40.201Z,18.13
2018-04-08T04:59:40.251Z,18.15
2018-04-08T05:00:40.199Z,18.17
2018-04-08T05:01:40.207Z,18.17
2018-04-08T05:02:40.185Z,18.18
2018-04-08T05:03:40.392Z,18.17
2018-04-08T05:04:40.165Z,18.17
2018-04-08T05:05:40.178Z,18.19
2018-04-08T05:06:40.185Z,18.18
2018-04-08T05:07:40.197Z,18.17
2018-04-08T05:08:40.209Z,18.19
2018-04-08T05:09:40.227Z,18.19
2018-04-08T05:10:40.194Z,18.2
2018-04-08T05:11:40.178Z,18.17
2018-04-08T05:12:40.204Z,18.21
2018-04-08T05:13:40.253Z,18.19
2018-04-08T05:14:40.164Z,18.19
2018-04-08T05:15:40.168Z,18.2
2018-04-08T05:16:40.195Z,18.2
2018-04-08T05:17:40.168Z,18.19
2018-04-08T05:18:40.175Z,18.17
2018-04-08T05:19:40.180Z,18.2
2018-04-08T05:20:40.204Z,18.18
2018-04-08T05:21:40.176Z,18.2
2018-04-08T05:22:40.183Z,18.2
2018-04-08T05:23:40.167Z,18.19
2018-04-08T05:24:40.183Z,18.2
2018-04-08T05:25:40.183Z,18.2
2018-04-08T05:26:40.199Z,18.17
2018-04-08T05:27:40.186Z,18.2
2018-04-08T05:28:40.202Z,18.18
2018-04-08T05:29:40.222Z,18.18
2018-04-08T05:30:40.210Z,18.18
2018-04-08T05:31:40.201Z,18.18
2018-04-08T05:32:40.161Z,18.18
2018-04-08T05:33:40.191Z,18.18
2018-04-08T05:34:40.179Z,18.18
2018-04-08T05:35:40.163Z,18.19
2018-04-08T05:36:40.151Z,18.18
2018-04-08T05:37:40.206Z,18.17
2018-04-08T05:38:40.154Z,18.15
2018-04-08T05:39:40.190Z,18.15
2018-04-08T05:40:40.209Z,18.18
2018-04-08T05:41:40.199Z,18.17
2018-04-08T05:42:40.168Z,18.15
2018-04-08T05:43:40.186Z,18.17
2018-04-08T05:44:40.242Z,18.15
2018-04-08T05:45:40.182Z,18.17
2018-04-08T05:46:40.191Z,18.17
2018-04-08T05:47:40.196Z,18.17
2018-04-08T05:48:40.193Z,18.17
2018-04-08T05:49:40.186Z,18.17
2018-04-08T05:50:40.189Z,18.15
2018-04-08T05:51:40.185Z,18.15
2018-04-08T05:52:40.198Z,18.17
2018-04-08T05:53:40.171Z,18.14
2018-04-08T05:54:40.133Z,18.13
2018-04-08T05:55:40.150Z,18.17
2018-04-08T05:56:40.165Z,18.15
2018-04-08T05:57:40.144Z,18.15
2018-04-08T05:58:40.188Z,18.13
2018-04-08T05:59:40.147Z,18.17
2018-04-08T06:00:40.173Z,18.17
2018-04-08T06:01:40.145Z,18.14
2018-04-08T06:02:40.174Z,18.13
2018-04-08T06:03:40.185Z,18.14
2018-04-08T06:04:40.182Z,18.14
2018-04-08T06:05:40.198Z,18.13
2018-04-08T06:06:40.182Z,18.14
2018-04-08T06:07:40.225Z,18.14
2018-04-08T06:08:40.139Z,18.13
2018-04-08T06:09:40.155Z,18.17
2018-04-08T06:10:40.209Z,18.14
2018-04-08T06:11:40.167Z,18.13
2018-04-08T06:12:40.156Z,18.14
2018-04-08T06:13:40.205Z,18.13
2018-04-08T06:14:40.162Z,18.14
2018-04-08T06:15:40.491Z,18.14
2018-04-08T06:16:40.146Z,18.14
2018-04-08T06:17:40.533Z,18.12
2018-04-08T06:18:40.152Z,18.14
2018-04-08T06:19:40.165Z,18.14
2018-04-08T06:20:40.183Z,18.13
2018-04-08T06:21:40.210Z,18.14
2018-04-08T06:22:40.136Z,18.12
2018-04-08T06:23:40.130Z,18.12
2018-04-08T06:24:40.159Z,18.13
2018-04-08T06:25:40.192Z,18.12
2018-04-08T06:26:40.134Z,18.12
2018-04-08T06:27:40.173Z,18.13
2018-04-08T06:28:40.220Z,18.12
2018-04-08T06:29:40.128Z,18.11
2018-04-08T06:30:40.211Z,18.12
2018-04-08T06:31:40.176Z,18.14
2018-04-08T06:32:40.156Z,18.12
2018-04-08T06:33:40.253Z,18.11
2018-04-08T06:34:40.194Z,18.12
2018-04-08T06:35:40.142Z,18.13
2018-04-08T06:36:40.160Z,18.11
2018-04-08T06:37:40.263Z,18.12
2018-04-08T06:38:40.224Z,18.12
2018-04-08T06:39:40.147Z,18.12
2018-04-08T06:40:40.156Z,18.11
2018-04-08T06:41:40.110Z,18.11
2018-04-08T06:42:40.146Z,18.13
2018-04-08T06:43:40.162Z,18.12
2018-04-08T06:44:40.165Z,18.12
2018-04-08T06:45:40.172Z,18.11
2018-04-08T06:46:40.164Z,18.12
2018-04-08T06:47:40.159Z,18.09
2018-04-08T06:48:40.162Z,18.12
2018-04-08T06:49:40.163Z,18.1
2018-04-08T06:50:40.173Z,18.11
2018-04-08T06:51:40.174Z,18.12
2018-04-08T06:52:40.160Z,18.12
2018-04-08T06:53:40.174Z,18.11
2018-04-08T06:54:40.157Z,18.14
2018-04-08T06:55:40.364Z,18.12
2018-04-08T06:56:40.156Z,18.11
2018-04-08T06:57:40.176Z,18.12
2018-04-08T06:58:40.158Z,18.1
2018-04-08T06:59:40.168Z,18.1
2018-04-08T07:00:40.201Z,18.12
2018-04-08T07:01:40.137Z,18.11
2018-04-08T07:02:40.160Z,18.12
2018-04-08T07:03:40.177Z,18.1
2018-04-08T07:04:40.153Z,18.12
2018-04-08T07:05:40.174Z,18.09
2018-04-08T07:06:40.142Z,18.12
2018-04-08T07:07:40.163Z,18.1
2018-04-08T07:08:40.174Z,18.09
2018-04-08T07:09:40.124Z,18.11
2018-04-08T07:10:40.202Z,18.11
2018-04-08T07:11:40.133Z,18.11
2018-04-08T07:12:40.171Z,18.1
2018-04-08T07:13:40.142Z,18.1
2018-04-08T07:14:40.166Z,18.1
2018-04-08T07:15:40.130Z,18.11
2018-04-08T07:16:40.171Z,18.1
2018-04-08T07:17:40.166Z,18.11
2018-04-08T07:18:40.153Z,18.1
2018-04-08T07:19:40.120Z,18.11
2018-04-08T07:20:40.136Z,18.12
2018-04-08T07:21:40.237Z,18.12
2018-04-08T07:22:40.128Z,18.11
2018-04-08T07:23:40.150Z,18.1
2018-04-08T07:24:40.709Z,18.12
2018-04-08T07:25:40.141Z,18.1
2018-04-08T07:26:40.216Z,18.08
2018-04-08T07:27:40.180Z,18.1
2018-04-08T07:28:40.162Z,18.1
2018-04-08T07:29:40.192Z,18.11
2018-04-08T07:30:40.200Z,18.12
2018-04-08T07:31:40.115Z,18.09
2018-04-08T07:32:40.409Z,18.1
2018-04-08T07:33:40.155Z,18.11
2018-04-08T07:34:40.138Z,18.1
2018-04-08T07:35:40.120Z,18.1
2018-04-08T07:36:40.207Z,18.09
2018-04-08T07:37:40.152Z,18.09
2018-04-08T07:38:40.127Z,18.11
2018-04-08T07:39:40.141Z,18.1
2018-04-08T07:40:40.139Z,18.1
2018-04-08T07:41:40.201Z,18.08
2018-04-08T07:42:40.149Z,18.06
2018-04-08T07:43:40.145Z,17.99
2018-04-08T07:44:40.458Z,17.99
2018-04-08T07:45:40.090Z,17.99
2018-04-08T07:46:40.101Z,17.97
2018-04-08T07:47:40.169Z,17.95
2018-04-08T07:48:40.131Z,17.95
2018-04-08T07:49:40.151Z,17.94
2018-04-08T07:50:40.134Z,17.89
2018-04-08T07:51:40.139Z,17.93
2018-04-08T07:52:40.154Z,17.91
2018-04-08T07:53:40.140Z,17.89
2018-04-08T07:54:40.174Z,17.88
2018-04-08T07:55:40.161Z,17.88
2018-04-08T07:56:40.133Z,17.85
2018-04-08T07:57:40.123Z,17.87
2018-04-08T07:58:40.131Z,17.84
2018-04-08T07:59:40.134Z,17.84
2018-04-08T08:00:40.135Z,17.87
2018-04-08T08:01:40.258Z,17.88
2018-04-08T08:02:40.141Z,17.92
2018-04-08T08:03:40.009Z,17.93
2018-04-08T08:04:40.120Z,17.92
2018-04-08T08:05:40.205Z,17.95
2018-04-08T08:06:40.133Z,17.97
2018-04-08T08:07:40.152Z,17.98
2018-04-08T08:08:40.205Z,17.97
2018-04-08T08:09:40.132Z,18.03
2018-04-08T08:10:40.453Z,18.02
2018-04-08T08:11:40.116Z,18.04
2018-04-08T08:12:40.150Z,18.03
2018-04-08T08:13:40.127Z,18.05
2018-04-08T08:14:40.152Z,18.04
2018-04-08T08:15:40.157Z,18.04
2018-04-08T08:16:40.120Z,18.04
2018-04-08T08:17:40.128Z,18.04
2018-04-08T08:18:40.164Z,18.04
2018-04-08T08:19:40.132Z,18.05
2018-04-08T08:20:40.156Z,18.04
2018-04-08T08:21:40.116Z,18.05
2018-04-08T08:22:40.165Z,18.06
2018-04-08T08:23:40.357Z,18.05
2018-04-08T08:24:40.130Z,18.06
2018-04-08T08:25:40.123Z,18.06
2018-04-08T08:26:40.112Z,18.05
2018-04-08T08:27:40.130Z,18.07
2018-04-08T08:28:40.117Z,18.07
2018-04-08T08:29:40.114Z,18.08
2018-04-08T08:30:40.202Z,18.09
2018-04-08T08:31:40.121Z,18.1
2018-04-08T08:32:40.122Z,18.09
2018-04-08T08:33:40.143Z,18.11
2018-04-08T08:34:40.118Z,18.12
2018-04-08T08:35:40.128Z,18.12
2018-04-08T08:36:40.136Z,18.13
2018-04-08T08:37:40.110Z,18.14
2018-04-08T08:38:40.347Z,18.13
2018-04-08T08:39:40.225Z,18.17
2018-04-08T08:40:40.103Z,18.17
2018-04-08T08:41:40.303Z,18.17
2018-04-08T08:42:40.182Z,18.2
2018-04-08T08:43:40.340Z,18.18
2018-04-08T08:44:40.143Z,18.18
2018-04-08T08:45:40.112Z,18.2
2018-04-08T08:46:40.403Z,18.22
2018-04-08T08:47:40.108Z,18.23
2018-04-08T08:48:40.140Z,18.2
2018-04-08T08:49:40.166Z,18.22
2018-04-08T08:50:40.097Z,18.22
2018-04-08T08:51:40.163Z,18.24
2018-04-08T08:52:40.124Z,18.26
2018-04-08T08:53:40.140Z,18.25
2018-04-08T08:54:40.105Z,18.26
2018-04-08T08:55:40.136Z,18.29
2018-04-08T08:56:40.130Z,18.3
2018-04-08T08:57:40.105Z,18.32
2018-04-08T08:58:40.126Z,18.36
2018-04-08T08:59:40.126Z,18.36
2018-04-08T09:00:40.126Z,18.39
2018-04-08T09:01:40.128Z,18.39
2018-04-08T09:02:40.120Z,18.38
2018-04-08T09:03:40.106Z,18.39
2018-04-08T09:04:40.105Z,18.36
2018-04-08T09:05:40.108Z,18.41
2018-04-08T09:06:40.596Z,18.37
2018-04-08T09:07:40.118Z,18.37
2018-04-08T09:08:40.123Z,18.38
2018-04-08T09:09:40.109Z,18.38
2018-04-08T09:10:40.111Z,18.4
2018-04-08T09:11:40.121Z,18.4
2018-04-08T09:12:40.101Z,18.41
2018-04-08T09:13:40.104Z,18.41
2018-04-08T09:14:40.109Z,18.43
2018-04-08T09:15:40.087Z,18.43
2018-04-08T09:16:40.146Z,18.46
2018-04-08T09:17:40.125Z,18.46
2018-04-08T09:18:40.120Z,18.49
2018-04-08T09:19:40.127Z,18.47
2018-04-08T09:20:40.137Z,18.47
2018-04-08T09:21:40.154Z,18.5
2018-04-08T09:22:40.123Z,18.49
2018-04-08T09:23:40.109Z,18.48
2018-04-08T09:24:40.148Z,18.5
2018-04-08T09:25:40.103Z,18.49
2018-04-08T09:26:40.272Z,18.51
2018-04-08T09:27:40.100Z,18.49
2018-04-08T09:28:40.078Z,18.48
2018-04-08T09:29:40.366Z,18.51
2018-04-08T09:30:40.169Z,18.51
2018-04-08T09:31:40.102Z,18.5
2018-04-08T09:32:40.078Z,18.52
2018-04-08T09:33:40.091Z,18.52
2018-04-08T09:34:40.131Z,18.5
2018-04-08T09:35:40.126Z,18.5
2018-04-08T09:36:40.111Z,18.53
2018-04-08T09:37:40.093Z,18.51
2018-04-08T09:38:40.106Z,18.51
2018-04-08T09:39:40.123Z,18.53
2018-04-08T09:40:40.102Z,18.5
2018-04-08T09:41:40.103Z,18.49
2018-04-08T09:42:40.136Z,18.53
2018-04-08T09:43:40.120Z,18.52
2018-04-08T09:44:40.103Z,18.54
2018-04-08T09:45:40.423Z,18.53
2018-04-08T09:46:40.091Z,18.51
2018-04-08T09:47:40.095Z,18.5
2018-04-08T09:48:40.160Z,18.52
2018-04-08T09:49:40.098Z,18.53
2018-04-08T09:50:40.155Z,18.52
2018-04-08T09:51:40.190Z,18.53
2018-04-08T09:52:40.118Z,18.54
2018-04-08T09:53:40.072Z,18.53
2018-04-08T09:54:40.130Z,18.53
2018-04-08T09:55:40.094Z,18.54
2018-04-08T09:56:40.105Z,18.53
2018-04-08T09:57:40.113Z,18.54
2018-04-08T09:58:40.086Z,18.53
2018-04-08T09:59:40.080Z,18.53
2018-04-08T10:00:40.091Z,18.56
2018-04-08T10:01:40.089Z,18.56
2018-04-08T10:02:40.101Z,18.55
2018-04-08T10:03:40.163Z,18.55
2018-04-08T10:04:40.088Z,18.56
2018-04-08T10:05:40.559Z,18.57
2018-04-08T10:06:40.106Z,18.55
2018-04-08T10:07:40.119Z,18.56
2018-04-08T10:08:40.093Z,18.54
2018-04-08T10:09:40.079Z,18.55
2018-04-08T10:10:22.286Z,18.64
2018-04-08T10:11:22.249Z,18.68
2018-04-08T10:12:22.148Z,18.68
2018-04-08T10:13:22.099Z,18.69
2018-04-08T10:14:22.082Z,18.71
2018-04-08T10:15:22.232Z,18.73
2018-04-08T10:16:15.705Z,18.78
2018-04-08T10:17:15.758Z,18.81
2018-04-08T10:18:15.632Z,18.82
2018-04-08T10:19:15.689Z,18.84
2018-04-08T10:20:15.624Z,18.88
2018-04-08T10:21:15.468Z,18.88
2018-04-08T10:22:00.679Z,18.93
2018-04-08T10:23:00.995Z,18.93
2018-04-08T10:24:00.624Z,18.96
2018-04-08T10:25:00.584Z,19
2018-04-08T10:26:00.582Z,19.02
2018-04-08T10:27:00.655Z,19.03
2018-04-08T10:28:00.647Z,19.06
2018-04-08T10:29:00.862Z,19.09
2018-04-08T10:30:00.604Z,19.09
2018-04-08T10:31:00.661Z,19.1
2018-04-08T10:32:00.765Z,19.11
2018-04-08T10:33:00.535Z,19.12
2018-04-08T10:34:00.651Z,19.1
2018-04-08T10:35:00.517Z,19.13
2018-04-08T10:36:00.740Z,19.13
2018-04-08T10:37:00.879Z,19.15
2018-04-08T10:38:00.692Z,19.18
2018-04-08T10:39:00.822Z,19.16
2018-04-08T10:40:00.507Z,19.17
2018-04-08T10:41:00.597Z,19.18
2018-04-08T10:42:00.644Z,19.17
2018-04-08T10:43:00.892Z,19.21
2018-04-08T10:44:00.696Z,19.23
2018-04-08T10:45:00.772Z,19.22
2018-04-08T10:46:00.672Z,19.21
2018-04-08T10:47:01.106Z,19.21
2018-04-08T10:48:00.843Z,19.21
2018-04-08T10:49:00.655Z,19.21
2018-04-08T10:50:00.464Z,19.25
2018-04-08T10:51:00.691Z,19.25
2018-04-08T10:52:00.580Z,19.24
2018-04-08T10:53:00.524Z,19.24
2018-04-08T10:54:00.783Z,19.25
2018-04-08T10:55:00.513Z,19.25
2018-04-08T10:56:00.653Z,19.24
2018-04-08T10:57:00.519Z,19.27
2018-04-08T10:58:00.539Z,19.26
2018-04-08T10:59:12.729Z,19.25
2018-04-08T11:00:12.478Z,19.29
2018-04-08T11:01:12.594Z,19.28
2018-04-08T11:02:12.510Z,19.3
2018-04-08T11:03:12.654Z,19.3
2018-04-08T11:04:12.653Z,19.3
2018-04-08T11:05:12.542Z,19.31
2018-04-08T11:06:12.447Z,19.29
2018-04-08T11:07:12.890Z,19.32
2018-04-08T11:08:12.628Z,19.3
2018-04-08T11:09:12.794Z,19.31
2018-04-08T11:10:12.691Z,19.3
2018-04-08T11:11:12.687Z,19.31
2018-04-08T11:12:12.718Z,19.31
2018-04-08T11:13:12.709Z,19.3
2018-04-08T11:14:12.682Z,19.28
2018-04-08T11:15:12.554Z,19.31
2018-04-08T11:16:12.704Z,19.28
2018-04-08T11:17:12.538Z,19.28
2018-04-08T11:18:12.558Z,19.29
2018-04-08T11:19:12.787Z,19.29
2018-04-08T11:20:13.320Z,19.28
2018-04-08T11:21:12.599Z,19.28
2018-04-08T11:22:12.815Z,19.26
2018-04-08T11:23:12.610Z,19.29
2018-04-08T11:24:12.702Z,19.3
2018-04-08T11:25:12.537Z,19.29
2018-04-08T11:26:12.565Z,19.3
2018-04-08T11:27:12.532Z,19.28
2018-04-08T11:28:12.599Z,19.3
2018-04-08T11:29:12.487Z,19.29
2018-04-08T11:30:12.802Z,19.28
2018-04-08T11:31:12.751Z,19.31
2018-04-08T11:32:12.621Z,19.3
2018-04-08T11:33:12.787Z,19.31
2018-04-08T11:34:12.596Z,19.31
2018-04-08T11:35:12.674Z,19.3
2018-04-08T11:36:12.503Z,19.29
2018-04-08T11:37:12.691Z,19.28
2018-04-08T11:38:12.667Z,19.27
2018-04-08T11:39:12.683Z,19.25
2018-04-08T11:40:12.819Z,19.25
2018-04-08T11:41:12.832Z,19.22
2018-04-08T11:42:12.532Z,19.22
2018-04-08T11:43:12.556Z,19.22
2018-04-08T11:44:12.535Z,19.17
2018-04-08T11:45:12.885Z,19.16
2018-04-08T11:46:12.747Z,19.17
2018-04-08T11:47:12.847Z,19.17
2018-04-08T11:48:12.574Z,19.18
2018-04-08T11:49:12.588Z,19.17
2018-04-08T11:50:12.473Z,19.18
2018-04-08T11:51:12.525Z,19.18
2018-04-08T11:52:12.646Z,19.21
2018-04-08T11:53:12.473Z,19.17
2018-04-08T11:54:12.623Z,19.2
2018-04-08T11:55:12.481Z,19.18
2018-04-08T11:56:12.491Z,19.17
2018-04-08T11:57:12.475Z,19.17
2018-04-08T11:58:12.898Z,19.16
2018-04-08T11:59:12.489Z,19.14
2018-04-08T12:00:12.683Z,19.16
2018-04-08T12:01:12.555Z,19.13
2018-04-08T12:02:12.645Z,19.14
2018-04-08T12:03:12.488Z,19.13
2018-04-08T12:04:12.473Z,19.13
2018-04-08T12:05:12.497Z,19.12
2018-04-08T12:06:12.625Z,19.11
2018-04-08T12:07:12.629Z,19.09
2018-04-08T12:08:12.634Z,19.09
2018-04-08T12:09:12.688Z,19.07
2018-04-08T12:10:12.582Z,19.06
2018-04-08T12:11:12.497Z,19.05
2018-04-08T12:12:12.591Z,19.06
2018-04-08T12:13:12.660Z,19.03
2018-04-08T12:14:12.668Z,19
2018-04-08T12:15:12.488Z,19.03
2018-04-08T12:16:12.638Z,19.01
2018-04-08T12:17:12.630Z,18.99
2018-04-08T12:18:12.464Z,18.98
2018-04-08T12:19:12.671Z,18.98
2018-04-08T12:20:12.577Z,18.98
2018-04-08T12:21:12.467Z,18.98
2018-04-08T12:22:12.681Z,18.98
2018-04-08T12:23:12.496Z,18.96
2018-04-08T12:24:12.581Z,18.96
2018-04-08T12:25:12.475Z,18.96
2018-04-08T12:26:12.593Z,18.94
2018-04-08T12:27:12.657Z,18.95
2018-04-08T12:28:12.644Z,18.94
2018-04-08T12:29:12.656Z,18.91
2018-04-08T12:30:12.539Z,18.93
2018-04-08T12:31:12.554Z,18.93
2018-04-08T12:32:12.487Z,18.89
2018-04-08T12:33:12.427Z,18.91
2018-04-08T12:34:12.426Z,18.93
2018-04-08T12:35:12.432Z,18.88
2018-04-08T12:36:12.438Z,18.91
2018-04-08T12:37:12.532Z,18.87
2018-04-08T12:38:12.436Z,18.91
2018-04-08T12:39:12.472Z,18.91
2018-04-08T12:40:12.294Z,18.88
2018-04-08T12:41:12.473Z,18.89
2018-04-08T12:42:12.579Z,18.91
2018-04-08T12:43:12.540Z,18.94
2018-04-08T12:44:12.454Z,18.96
2018-04-08T12:45:12.759Z,18.98
2018-04-08T12:46:12.497Z,19
2018-04-08T12:47:12.436Z,19.01
2018-04-08T12:48:12.443Z,19.03
2018-04-08T12:49:12.496Z,19.05
2018-04-08T12:50:12.730Z,19.09
2018-04-08T12:51:12.464Z,19.09
2018-04-08T12:52:12.501Z,19.12
2018-04-08T12:53:12.436Z,19.12
2018-04-08T12:54:12.518Z,19.13
2018-04-08T12:55:12.507Z,19.13